Time;durP1;ratioP1;P1;durP2;ratioP2;P2;SDS_P1;SDS_P2;PMS_P1;PMS_P2;Temp;Humidity;BMP_temperature;BMP_pressure;BME280_temperature;BME280_humidity;BME280_pressure;Samples;Min_cycle;Max_cycle;Signal;HPM_P1;HPM_P2
2023/09/09 00:00:07;;;;;;;7.88;4.93;;;;;;;;;;2584468;22;19988;-90
2023/09/09 00:01:07;;;;;;;7.53;4.75;;;;;;;;;;2571188;23;20000;-89
2023/09/09 00:02:08;;;;;;;8.82;4.38;;;;;;;;;;2141409;23;10000085;-89
2023/09/09 00:03:08;;;;;;;7.65;4.32;;;;;;;;;;2567406;23;20171;-89
2023/09/09 00:04:09;;;;;;;6.70;4.28;;;;;;;;;;2570645;23;20403;-90
2023/09/09 00:05:10;;;;;;;7.50;4.70;;;;;;;;;;2567665;23;20746;-89
2023/09/09 00:06:11;;;;;;;7.20;4.43;;;;;;;;;;2555196;23;20012;-89
2023/09/09 00:07:12;;;;;;;8.13;4.75;;;;;;;;;;2570529;23;20012;-89
2023/09/09 00:08:12;;;;;;;6.90;4.88;;;;;;;;;;2584043;22;20253;-89
2023/09/09 00:09:15;;;;;;;9.23;4.63;;;;;;;;;;2587169;22;20125;-90
2023/09/09 00:10:15;;;;;;;9.10;4.60;;;;;;;;;;2589589;23;20063;-88
2023/09/09 00:11:15;;;;;;;11.23;5.03;;;;;;;;;;2570139;23;20008;-89
2023/09/09 00:12:16;;;;;;;7.60;4.63;;;;;;;;;;2555320;23;20024;-89
2023/09/09 00:13:16;;;;;;;4.72;4.25;;;;;;;;;;2555270;23;20016;-90
2023/09/09 00:14:17;;;;;;;8.00;4.72;;;;;;;;;;2570749;23;20001;-89
2023/09/09 00:15:17;;;;;;;7.40;5.05;;;;;;;;;;2568269;23;20040;-90
2023/09/09 00:16:18;;;;;;;6.95;5.03;;;;;;;;;;2555926;23;20021;-90
2023/09/09 00:17:18;;;;;;;6.57;4.30;;;;;;;;;;2554380;23;20017;-89
2023/09/09 00:18:18;;;;;;;8.82;5.07;;;;;;;;;;2570586;23;19997;-89
2023/09/09 00:19:21;;;;;;;8.43;5.03;;;;;;;;;;2577767;23;20474;-89
2023/09/09 00:20:31;;;;;;;8.80;4.80;;;;;;;;;;2568406;23;20010;-89
2023/09/09 00:21:31;;;;;;;9.13;4.85;;;;;;;;;;2571626;23;20343;-90
2023/09/09 00:22:31;;;;;;;9.27;4.72;;;;;;;;;;2583057;23;20023;-89
2023/09/09 00:23:32;;;;;;;9.18;4.40;;;;;;;;;;2583460;23;20004;-89
2023/09/09 00:24:32;;;;;;;7.93;4.60;;;;;;;;;;2583353;23;20075;-89
2023/09/09 00:25:36;;;;;;;8.25;5.05;;;;;;;;;;2568491;23;20316;-90
2023/09/09 00:26:37;;;;;;;7.15;5.25;;;;;;;;;;2570249;23;20023;-89
2023/09/09 00:27:37;;;;;;;7.13;4.68;;;;;;;;;;2568470;23;20387;-89
2023/09/09 00:28:37;;;;;;;7.03;4.53;;;;;;;;;;2555947;23;20080;-89
2023/09/09 00:29:38;;;;;;;7.13;4.85;;;;;;;;;;2555892;23;20005;-89
2023/09/09 00:30:38;;;;;;;7.95;5.18;;;;;;;;;;2569305;23;20000;-89
2023/09/09 00:31:39;;;;;;;11.27;5.18;;;;;;;;;;2568871;23;20011;-88
2023/09/09 00:32:39;;;;;;;6.43;4.40;;;;;;;;;;2568993;23;20007;-89
2023/09/09 00:33:39;;;;;;;9.20;5.32;;;;;;;;;;2568589;23;20209;-88
2023/09/09 00:34:40;;;;;;;7.25;4.82;;;;;;;;;;2556063;23;20004;-89
2023/09/09 00:35:40;;;;;;;9.35;5.10;;;;;;;;;;2556126;23;20005;-89
2023/09/09 00:36:40;;;;;;;8.45;4.72;;;;;;;;;;2569019;23;20068;-89
2023/09/09 00:37:41;;;;;;;9.93;5.07;;;;;;;;;;2582417;23;20008;-89
2023/09/09 00:38:41;;;;;;;8.90;5.72;;;;;;;;;;2568303;23;20553;-89
2023/09/09 00:39:42;;;;;;;8.95;5.45;;;;;;;;;;2555993;23;20005;-89
2023/09/09 00:40:44;;;;;;;8.40;5.50;;;;;;;;;;2568790;23;20390;-89
2023/09/09 00:41:44;;;;;;;10.85;5.10;;;;;;;;;;2582244;23;20004;-89
2023/09/09 00:42:45;;;;;;;9.80;5.10;;;;;;;;;;2568172;23;20000;-88
2023/09/09 00:43:45;;;;;;;9.65;4.93;;;;;;;;;;2568842;23;20004;-88
2023/09/09 00:44:46;;;;;;;12.80;5.63;;;;;;;;;;2567973;23;20004;-88
2023/09/09 00:45:46;;;;;;;12.15;5.40;;;;;;;;;;2555826;23;20100;-88
2023/09/09 00:46:46;;;;;;;6.78;4.97;;;;;;;;;;2568340;23;20070;-88
2023/09/09 00:47:47;;;;;;;8.43;4.80;;;;;;;;;;2581921;23;20015;-88
2023/09/09 00:48:48;;;;;;;9.23;5.10;;;;;;;;;;2568572;23;20007;-90
2023/09/09 00:49:48;;;;;;;8.68;4.72;;;;;;;;;;2555824;23;20372;-89
2023/09/09 00:50:48;;;;;;;8.60;4.72;;;;;;;;;;2556026;23;20040;-89
2023/09/09 00:51:49;;;;;;;8.02;4.93;;;;;;;;;;2568876;23;20382;-89
2023/09/09 00:52:50;;;;;;;7.40;4.65;;;;;;;;;;2568259;23;20354;-89
2023/09/09 00:53:50;;;;;;;8.23;4.93;;;;;;;;;;2572446;23;20450;-89
2023/09/09 00:54:51;;;;;;;8.15;4.70;;;;;;;;;;2580361;23;20469;-89
2023/09/09 00:55:52;;;;;;;6.85;4.63;;;;;;;;;;2567986;23;20347;-89
2023/09/09 00:56:58;;;;;;;11.02;4.90;;;;;;;;;;2555474;23;20093;-88
2023/09/09 00:57:59;;;;;;;7.70;4.57;;;;;;;;;;2559929;23;20001;-89
2023/09/09 00:58:59;;;;;;;6.68;4.32;;;;;;;;;;2577816;23;20003;-89
2023/09/09 01:00:03;;;;;;;8.25;4.60;;;;;;;;;;2588576;23;20003;-89
2023/09/09 01:01:04;;;;;;;7.65;5.05;;;;;;;;;;2568489;23;19997;-89
2023/09/09 01:02:04;;;;;;;9.23;4.40;;;;;;;;;;2572050;23;20051;-89
2023/09/09 01:03:09;;;;;;;8.60;5.13;;;;;;;;;;2580728;23;20428;-89
2023/09/09 01:04:09;;;;;;;5.63;4.45;;;;;;;;;;2583623;23;19999;-89
2023/09/09 01:05:10;;;;;;;7.68;4.75;;;;;;;;;;2584645;23;20148;-89
2023/09/09 01:06:11;;;;;;;6.95;4.10;;;;;;;;;;2580515;23;20008;-89
2023/09/09 01:07:11;;;;;;;7.60;4.15;;;;;;;;;;2567896;23;20378;-89
2023/09/09 01:08:12;;;;;;;5.65;3.72;;;;;;;;;;2568141;23;20075;-89
2023/09/09 01:09:12;;;;;;;8.85;4.93;;;;;;;;;;2568249;23;20086;-89
2023/09/09 01:10:14;;;;;;;7.57;5.00;;;;;;;;;;2568229;23;20048;-89
2023/09/09 01:11:14;;;;;;;10.32;4.10;;;;;;;;;;2571171;23;20008;-89
2023/09/09 01:12:15;;;;;;;7.30;4.80;;;;;;;;;;2584321;23;20003;-90
2023/09/09 01:13:15;;;;;;;6.40;4.22;;;;;;;;;;2584127;23;20008;-90
2023/09/09 01:14:16;;;;;;;6.43;4.60;;;;;;;;;;2584007;23;19996;-90
2023/09/09 01:15:16;;;;;;;8.30;4.35;;;;;;;;;;2568012;23;20457;-89
2023/09/09 01:16:17;;;;;;;9.43;4.47;;;;;;;;;;2568014;23;20001;-89
2023/09/09 01:17:18;;;;;;;7.18;4.80;;;;;;;;;;2568299;23;20004;-89
2023/09/09 01:18:18;;;;;;;7.47;3.90;;;;;;;;;;2568423;23;20004;-89
2023/09/09 01:19:21;;;;;;;7.57;3.70;;;;;;;;;;2568436;23;20094;-90
2023/09/09 01:20:24;;;;;;;7.80;4.82;;;;;;;;;;2568413;23;19996;-89
2023/09/09 01:21:28;;;;;;;7.00;4.65;;;;;;;;;;2582662;23;20010;-89
2023/09/09 01:22:33;;;;;;;6.07;4.35;;;;;;;;;;2568198;23;19997;-90
2023/09/09 01:23:34;;;;;;;7.80;4.53;;;;;;;;;;2570280;23;20039;-88
2023/09/09 01:24:34;;;;;;;5.22;4.00;;;;;;;;;;2568029;23;20079;-90
2023/09/09 01:25:35;;;;;;;4.75;4.13;;;;;;;;;;2567811;23;20393;-89
2023/09/09 01:26:35;;;;;;;6.50;4.50;;;;;;;;;;2582138;23;19996;-89
2023/09/09 01:27:36;;;;;;;7.35;4.55;;;;;;;;;;2568375;23;20079;-89
2023/09/09 01:28:36;;;;;;;8.93;4.53;;;;;;;;;;2569157;23;20024;-89
2023/09/09 01:29:37;;;;;;;5.70;4.10;;;;;;;;;;2569083;23;20008;-87
2023/09/09 01:30:37;;;;;;;7.07;4.38;;;;;;;;;;2571859;23;20004;-90
2023/09/09 01:31:37;;;;;;;7.15;4.32;;;;;;;;;;2580520;23;20015;-90
2023/09/09 01:32:38;;;;;;;7.60;3.90;;;;;;;;;;2581756;23;20004;-88
2023/09/09 01:33:39;;;;;;;6.38;4.32;;;;;;;;;;2568223;23;20099;-90
2023/09/09 01:34:39;;;;;;;5.97;3.60;;;;;;;;;;2555639;23;20036;-90
2023/09/09 01:35:39;;;;;;;6.60;3.83;;;;;;;;;;2568753;23;20083;-90
2023/09/09 01:36:40;;;;;;;7.75;4.57;;;;;;;;;;2580620;23;20087;-89
2023/09/09 01:37:40;;;;;;;6.68;4.05;;;;;;;;;;2581213;23;20011;-90
2023/09/09 01:38:40;;;;;;;7.03;4.53;;;;;;;;;;2582190;23;20067;-90
2023/09/09 01:39:41;;;;;;;10.65;3.50;;;;;;;;;;2567916;23;20427;-89
2023/09/09 01:40:41;;;;;;;7.95;4.07;;;;;;;;;;2555719;23;20032;-90
2023/09/09 01:41:42;;;;;;;7.10;3.58;;;;;;;;;;2555748;23;20036;-88
2023/09/09 01:42:43;;;;;;;6.40;4.25;;;;;;;;;;2555573;23;20017;-90
2023/09/09 01:43:43;;;;;;;6.22;4.38;;;;;;;;;;2568726;23;20011;-90
2023/09/09 01:44:45;;;;;;;6.45;4.43;;;;;;;;;;2581928;23;20494;-89
2023/09/09 01:45:48;;;;;;;7.22;4.68;;;;;;;;;;2568061;23;20028;-90
2023/09/09 01:46:49;;;;;;;7.07;3.60;;;;;;;;;;2571325;23;20230;-89
2023/09/09 01:47:49;;;;;;;9.07;4.28;;;;;;;;;;2564341;23;19993;-88
2023/09/09 01:48:49;;;;;;;9.30;4.30;;;;;;;;;;2560056;23;20051;-89
2023/09/09 01:49:50;;;;;;;8.70;4.20;;;;;;;;;;2568171;23;20008;-89
2023/09/09 01:50:50;;;;;;;9.68;4.63;;;;;;;;;;2569457;22;20411;-89
2023/09/09 01:51:51;;;;;;;7.65;4.43;;;;;;;;;;2580458;23;19996;-90
2023/09/09 01:52:51;;;;;;;9.02;3.97;;;;;;;;;;2567768;23;19997;-90
2023/09/09 01:53:51;;;;;;;7.32;4.78;;;;;;;;;;2572174;23;19997;-89
2023/09/09 01:54:52;;;;;;;6.75;4.25;;;;;;;;;;2580411;23;19992;-90
2023/09/09 01:55:52;;;;;;;6.15;4.22;;;;;;;;;;2567800;23;20470;-89
2023/09/09 01:56:52;;;;;;;6.55;4.68;;;;;;;;;;2571949;23;20012;-89
2023/09/09 01:57:53;;;;;;;5.63;3.80;;;;;;;;;;2567907;23;20549;-89
2023/09/09 01:58:53;;;;;;;8.63;4.60;;;;;;;;;;2572189;23;20000;-90
2023/09/09 01:59:54;;;;;;;7.47;4.30;;;;;;;;;;2585533;23;20102;-89
2023/09/09 02:00:54;;;;;;;6.18;4.20;;;;;;;;;;2585493;23;19996;-90
2023/09/09 02:01:54;;;;;;;5.75;3.70;;;;;;;;;;2585122;23;20027;-89
2023/09/09 02:02:55;;;;;;;7.22;3.95;;;;;;;;;;2585233;23;20004;-89
2023/09/09 02:03:55;;;;;;;8.68;4.70;;;;;;;;;;2580317;23;19992;-90
2023/09/09 02:04:56;;;;;;;8.50;4.20;;;;;;;;;;2584513;23;19992;-89
2023/09/09 02:05:56;;;;;;;5.93;4.47;;;;;;;;;;2585313;23;20019;-89
2023/09/09 02:06:56;;;;;;;7.47;4.80;;;;;;;;;;2567899;23;20410;-89
2023/09/09 02:07:57;;;;;;;9.20;4.60;;;;;;;;;;2555223;23;20092;-90
2023/09/09 02:09:01;;;;;;;8.25;4.57;;;;;;;;;;2555548;23;20005;-90
2023/09/09 02:10:01;;;;;;;4.35;3.67;;;;;;;;;;2556241;23;20001;-89
2023/09/09 02:11:01;;;;;;;8.20;4.20;;;;;;;;;;2555709;23;20080;-89
2023/09/09 02:12:03;;;;;;;5.72;4.07;;;;;;;;;;2571227;23;20031;-89
2023/09/09 02:13:04;;;;;;;7.38;4.18;;;;;;;;;;2567994;23;20047;-89
2023/09/09 02:14:04;;;;;;;6.67;4.43;;;;;;;;;;2118511;23;10245475;-89
2023/09/09 02:15:05;;;;;;;6.93;4.55;;;;;;;;;;2561604;23;20004;-89
2023/09/09 02:16:06;;;;;;;6.40;4.68;;;;;;;;;;2574730;23;20020;-89
2023/09/09 02:17:07;;;;;;;7.50;5.22;;;;;;;;;;2584639;23;19992;-89
2023/09/09 02:18:08;;;;;;;7.78;4.38;;;;;;;;;;2584519;23;20034;-89
2023/09/09 02:19:08;;;;;;;7.60;4.40;;;;;;;;;;2568059;23;20347;-89
2023/09/09 02:20:09;;;;;;;7.20;4.93;;;;;;;;;;2570763;23;19997;-89
2023/09/09 02:21:10;;;;;;;8.02;4.43;;;;;;;;;;2567955;23;20003;-89
2023/09/09 02:22:10;;;;;;;7.10;4.78;;;;;;;;;;2570536;23;20058;-89
2023/09/09 02:23:10;;;;;;;7.47;4.53;;;;;;;;;;2583896;23;20432;-89
2023/09/09 02:24:11;;;;;;;6.57;4.25;;;;;;;;;;2567791;23;20081;-89
2023/09/09 02:25:11;;;;;;;7.15;4.07;;;;;;;;;;2571942;23;20477;-90
2023/09/09 02:26:11;;;;;;;7.45;4.57;;;;;;;;;;2577136;23;20015;-89
2023/09/09 02:27:12;;;;;;;7.90;4.22;;;;;;;;;;2579795;23;20001;-89
2023/09/09 02:28:13;;;;;;;11.10;4.68;;;;;;;;;;2594030;23;19988;-88
2023/09/09 02:29:13;;;;;;;6.10;3.97;;;;;;;;;;2584281;23;20027;-89
2023/09/09 02:30:14;;;;;;;7.88;4.82;;;;;;;;;;2568511;23;20005;-90
2023/09/09 02:31:14;;;;;;;11.00;4.78;;;;;;;;;;2570665;23;20362;-89
2023/09/09 02:32:16;;;;;;;8.75;5.07;;;;;;;;;;2584275;23;20014;-90
2023/09/09 02:33:16;;;;;;;7.05;4.35;;;;;;;;;;2568432;23;20004;-89
2023/09/09 02:34:17;;;;;;;9.13;4.47;;;;;;;;;;2555405;23;20005;-90
2023/09/09 02:35:18;;;;;;;7.43;4.43;;;;;;;;;;2570787;23;20424;-89
2023/09/09 02:36:18;;;;;;;8.18;4.50;;;;;;;;;;2590776;23;20315;-89
2023/09/09 02:37:20;;;;;;;8.30;4.95;;;;;;;;;;2577993;23;20004;-89
2023/09/09 02:38:21;;;;;;;9.82;4.25;;;;;;;;;;2567955;23;20075;-90
2023/09/09 02:39:21;;;;;;;5.43;4.57;;;;;;;;;;2570245;23;20081;-89
2023/09/09 02:40:22;;;;;;;7.80;4.70;;;;;;;;;;2583343;23;20423;-90
2023/09/09 02:41:22;;;;;;;6.75;4.68;;;;;;;;;;2567921;23;20014;-90
2023/09/09 02:42:23;;;;;;;7.70;4.65;;;;;;;;;;2555407;23;20355;-89
2023/09/09 02:43:23;;;;;;;8.85;4.75;;;;;;;;;;2569664;23;20001;-89
2023/09/09 02:44:24;;;;;;;10.77;5.20;;;;;;;;;;2583145;23;20139;-89
2023/09/09 02:45:24;;;;;;;6.82;4.50;;;;;;;;;;2589812;22;20296;-89
2023/09/09 02:46:25;;;;;;;6.95;4.90;;;;;;;;;;2599471;22;20009;-90
2023/09/09 02:47:25;;;;;;;10.45;4.80;;;;;;;;;;2595706;22;19995;-90
2023/09/09 02:48:26;;;;;;;6.55;5.47;;;;;;;;;;2595670;22;20417;-90
2023/09/09 02:49:26;;;;;;;8.93;4.40;;;;;;;;;;2593170;22;20080;-89
2023/09/09 02:50:27;;;;;;;5.75;4.53;;;;;;;;;;2587971;22;20011;-90
2023/09/09 02:51:27;;;;;;;6.18;4.28;;;;;;;;;;2580690;23;20082;-88
2023/09/09 02:52:28;;;;;;;8.82;4.88;;;;;;;;;;2568037;23;20448;-89
2023/09/09 02:53:30;;;;;;;6.90;4.15;;;;;;;;;;2581787;23;20019;-89
2023/09/09 02:54:30;;;;;;;7.40;4.72;;;;;;;;;;2590985;22;20004;-89
2023/09/09 02:55:30;;;;;;;8.90;4.65;;;;;;;;;;2579824;23;20503;-89
2023/09/09 02:56:31;;;;;;;9.57;5.07;;;;;;;;;;2580040;23;20450;-90
2023/09/09 02:57:31;;;;;;;7.35;4.60;;;;;;;;;;2582020;23;20050;-90
2023/09/09 02:58:32;;;;;;;9.32;5.10;;;;;;;;;;2580268;23;20034;-90
2023/09/09 02:59:33;;;;;;;8.50;4.50;;;;;;;;;;2567873;23;20055;-89
2023/09/09 03:00:33;;;;;;;9.25;4.75;;;;;;;;;;2581511;22;20358;-89
2023/09/09 03:01:34;;;;;;;6.70;4.78;;;;;;;;;;2580309;22;20036;-90
2023/09/09 03:02:35;;;;;;;7.03;4.65;;;;;;;;;;2581617;23;20469;-90
2023/09/09 03:03:35;;;;;;;9.10;4.95;;;;;;;;;;2570977;23;20377;-89
2023/09/09 03:04:36;;;;;;;8.15;5.53;;;;;;;;;;2564462;23;20386;-89
2023/09/09 03:05:36;;;;;;;8.45;4.75;;;;;;;;;;2567530;23;19997;-89
2023/09/09 03:06:36;;;;;;;7.68;4.82;;;;;;;;;;2578397;23;20394;-89
2023/09/09 03:07:37;;;;;;;5.82;4.95;;;;;;;;;;2592056;22;20453;-89
2023/09/09 03:08:38;;;;;;;10.65;5.07;;;;;;;;;;2594725;22;20035;-89
2023/09/09 03:09:38;;;;;;;6.97;4.70;;;;;;;;;;2580570;23;20161;-90
2023/09/09 03:10:38;;;;;;;8.63;4.80;;;;;;;;;;2567764;23;20014;-89
2023/09/09 03:11:39;;;;;;;8.95;4.70;;;;;;;;;;2580990;23;20007;-90
2023/09/09 03:12:39;;;;;;;6.93;4.80;;;;;;;;;;2580294;23;20472;-90
2023/09/09 03:13:41;;;;;;;11.70;4.72;;;;;;;;;;2567885;23;20335;-89
2023/09/09 03:14:42;;;;;;;10.18;4.70;;;;;;;;;;2581039;23;20012;-90
2023/09/09 03:15:42;;;;;;;8.05;4.93;;;;;;;;;;2592550;22;19999;-89
2023/09/09 03:16:44;;;;;;;13.50;5.00;;;;;;;;;;2594599;22;20444;-88
2023/09/09 03:17:45;;;;;;;8.93;5.05;;;;;;;;;;2594303;22;20365;-90
2023/09/09 03:18:45;;;;;;;6.45;4.55;;;;;;;;;;2580218;22;20058;-90
2023/09/09 03:19:45;;;;;;;6.63;4.55;;;;;;;;;;2580659;23;20057;-88
2023/09/09 03:20:46;;;;;;;7.43;4.72;;;;;;;;;;2593966;22;20027;-90
2023/09/09 03:21:47;;;;;;;7.85;4.90;;;;;;;;;;2580016;23;20000;-89
2023/09/09 03:22:47;;;;;;;7.95;5.53;;;;;;;;;;2580726;23;20082;-89
2023/09/09 03:23:48;;;;;;;11.60;5.05;;;;;;;;;;2580181;22;20469;-88
2023/09/09 03:24:48;;;;;;;8.27;4.50;;;;;;;;;;2587068;23;20032;-90
2023/09/09 03:25:49;;;;;;;9.98;5.30;;;;;;;;;;2589992;23;20031;-88
2023/09/09 03:26:49;;;;;;;10.73;4.82;;;;;;;;;;2583382;22;20061;-89
2023/09/09 03:27:50;;;;;;;9.32;4.78;;;;;;;;;;2592698;22;20003;-89
2023/09/09 03:28:50;;;;;;;8.35;5.18;;;;;;;;;;2580256;23;20437;-89
2023/09/09 03:29:51;;;;;;;7.75;4.88;;;;;;;;;;2584509;23;20078;-89
2023/09/09 03:30:54;;;;;;;9.10;5.20;;;;;;;;;;2579996;23;20066;-89
2023/09/09 03:31:54;;;;;;;8.60;5.38;;;;;;;;;;2580104;23;20004;-89
2023/09/09 03:32:56;;;;;;;6.10;4.75;;;;;;;;;;2568496;23;19999;-90
2023/09/09 03:33:56;;;;;;;7.32;4.88;;;;;;;;;;2580565;23;20087;-89
2023/09/09 03:34:56;;;;;;;10.52;4.95;;;;;;;;;;2584110;23;20385;-90
2023/09/09 03:35:57;;;;;;;8.55;5.05;;;;;;;;;;2586519;22;20244;-89
2023/09/09 03:36:57;;;;;;;5.75;4.65;;;;;;;;;;2597255;22;20481;-90
2023/09/09 03:37:58;;;;;;;8.98;5.28;;;;;;;;;;2597373;22;19995;-89
2023/09/09 03:39:03;;;;;;;7.35;4.70;;;;;;;;;;2592900;22;20358;-89
2023/09/09 03:40:05;;;;;;;11.93;5.22;;;;;;;;;;2596074;22;20414;-89
2023/09/09 03:41:06;;;;;;;7.68;5.25;;;;;;;;;;2596495;22;19992;-90
2023/09/09 03:42:06;;;;;;;7.95;5.45;;;;;;;;;;2596558;22;19996;-89
2023/09/09 03:43:07;;;;;;;7.97;4.95;;;;;;;;;;2580007;23;20000;-90
2023/09/09 03:44:07;;;;;;;6.90;4.75;;;;;;;;;;2582892;23;20015;-90
2023/09/09 03:45:09;;;;;;;13.52;5.15;;;;;;;;;;2596221;22;19992;-89
2023/09/09 03:46:09;;;;;;;7.85;4.60;;;;;;;;;;2596414;22;20019;-89
2023/09/09 03:47:10;;;;;;;8.70;5.28;;;;;;;;;;2579880;23;20473;-90
2023/09/09 03:48:10;;;;;;;8.95;5.38;;;;;;;;;;2580095;23;20086;-88
2023/09/09 03:49:11;;;;;;;8.15;5.25;;;;;;;;;;2583108;23;20430;-88
2023/09/09 03:50:11;;;;;;;8.25;5.00;;;;;;;;;;2579975;23;20004;-89
2023/09/09 03:51:11;;;;;;;11.45;5.82;;;;;;;;;;2582846;23;20095;-88
2023/09/09 03:52:12;;;;;;;7.75;4.88;;;;;;;;;;2592888;22;20038;-90
2023/09/09 03:53:12;;;;;;;10.38;4.93;;;;;;;;;;2579991;23;20434;-89
2023/09/09 03:54:13;;;;;;;9.18;5.38;;;;;;;;;;2580118;23;20003;-89
2023/09/09 03:55:22;;;;;;;8.69;5.40;;;;;;;;;;2493124;22;10103506;-89
2023/09/09 03:56:22;;;;;;;9.88;5.60;;;;;;;;;;2583955;22;20286;-89
2023/09/09 03:57:23;;;;;;;6.70;4.53;;;;;;;;;;2581880;23;20000;-89
2023/09/09 03:58:24;;;;;;;8.73;5.43;;;;;;;;;;2579975;23;20079;-89
2023/09/09 03:59:29;;;;;;;8.65;5.43;;;;;;;;;;2130520;22;10441184;-89
2023/09/09 04:00:29;;;;;;;10.32;5.78;;;;;;;;;;2589615;22;20449;-89
2023/09/09 04:01:31;;;;;;;8.10;5.32;;;;;;;;;;2592577;22;20008;-89
2023/09/09 04:02:31;;;;;;;9.98;5.43;;;;;;;;;;2579721;23;20421;-89
2023/09/09 04:03:36;;;;;;;8.68;5.53;;;;;;;;;;2579988;23;20000;-90
2023/09/09 04:04:36;;;;;;;11.25;6.13;;;;;;;;;;2581321;23;20007;-89
2023/09/09 04:05:36;;;;;;;7.63;5.63;;;;;;;;;;2591298;22;20027;-89
2023/09/09 04:06:37;;;;;;;10.13;6.32;;;;;;;;;;2594682;22;19992;-89
2023/09/09 04:07:37;;;;;;;16.73;7.53;;;;;;;;;;2592609;22;20016;-90
2023/09/09 04:08:39;;;;;;;11.07;8.00;;;;;;;;;;2593444;22;20011;-89
2023/09/09 04:09:40;;;;;;;12.45;6.88;;;;;;;;;;2580198;23;20012;-89
2023/09/09 04:10:41;;;;;;;14.38;7.70;;;;;;;;;;2580688;22;20006;-89
2023/09/09 04:11:41;;;;;;;14.77;7.72;;;;;;;;;;2579812;22;20027;-89
2023/09/09 04:12:42;;;;;;;13.85;7.00;;;;;;;;;;2580022;23;20011;-89
2023/09/09 04:13:42;;;;;;;12.65;6.82;;;;;;;;;;2584782;23;20000;-90
2023/09/09 04:14:44;;;;;;;11.77;6.38;;;;;;;;;;2590438;23;20422;-88
2023/09/09 04:15:44;;;;;;;12.38;6.53;;;;;;;;;;2597195;22;20178;-89
2023/09/09 04:16:44;;;;;;;11.70;6.63;;;;;;;;;;2580217;23;20449;-89
2023/09/09 04:17:45;;;;;;;10.98;6.53;;;;;;;;;;2567540;23;20005;-89
2023/09/09 04:18:45;;;;;;;12.52;6.75;;;;;;;;;;2568218;23;20071;-89
2023/09/09 04:19:46;;;;;;;13.00;6.05;;;;;;;;;;2591659;22;20118;-89
2023/09/09 04:20:46;;;;;;;9.45;5.95;;;;;;;;;;2593108;22;20057;-89
2023/09/09 04:21:47;;;;;;;10.23;5.65;;;;;;;;;;2579884;23;20012;-89
2023/09/09 04:22:49;;;;;;;10.45;6.13;;;;;;;;;;2567712;23;20058;-89
2023/09/09 04:23:49;;;;;;;9.30;5.32;;;;;;;;;;2579643;23;20004;-90
2023/09/09 04:24:49;;;;;;;9.60;5.68;;;;;;;;;;2580015;23;20534;-90
2023/09/09 04:25:50;;;;;;;9.57;5.72;;;;;;;;;;2579999;23;20004;-90
2023/09/09 04:26:50;;;;;;;9.52;6.03;;;;;;;;;;2579907;23;20444;-89
2023/09/09 04:27:51;;;;;;;8.75;6.28;;;;;;;;;;2567448;23;20004;-89
2023/09/09 04:28:52;;;;;;;7.25;5.72;;;;;;;;;;2579834;23;19996;-90
2023/09/09 04:29:52;;;;;;;11.35;5.13;;;;;;;;;;2584501;23;19992;-90
2023/09/09 04:30:53;;;;;;;7.22;4.47;;;;;;;;;;2580087;23;20058;-90
2023/09/09 04:31:53;;;;;;;9.82;4.50;;;;;;;;;;2583975;23;20470;-90
2023/09/09 04:32:54;;;;;;;8.40;4.95;;;;;;;;;;2579987;23;20066;-90
2023/09/09 04:33:54;;;;;;;7.38;4.60;;;;;;;;;;2568193;23;20015;-90
2023/09/09 04:34:57;;;;;;;7.50;4.38;;;;;;;;;;2579765;23;20000;-90
2023/09/09 04:35:57;;;;;;;5.15;4.03;;;;;;;;;;2570826;23;19996;-88
2023/09/09 04:36:58;;;;;;;8.05;4.55;;;;;;;;;;2568926;23;20355;-90
2023/09/09 04:37:58;;;;;;;7.22;4.47;;;;;;;;;;2579873;23;20000;-90
2023/09/09 04:38:59;;;;;;;6.53;4.30;;;;;;;;;;2570340;23;20337;-88
2023/09/09 04:39:59;;;;;;;7.53;4.28;;;;;;;;;;2596309;22;20002;-89
2023/09/09 04:41:00;;;;;;;8.00;4.30;;;;;;;;;;2586288;22;19992;-89
2023/09/09 04:42:01;;;;;;;6.57;4.30;;;;;;;;;;2592481;22;20484;-89
2023/09/09 04:43:01;;;;;;;7.95;4.50;;;;;;;;;;2579850;23;20023;-89
2023/09/09 04:44:01;;;;;;;6.70;4.72;;;;;;;;;;2583512;23;20079;-89
2023/09/09 04:45:05;;;;;;;6.55;4.72;;;;;;;;;;2569798;23;20435;-89
2023/09/09 04:46:05;;;;;;;7.07;4.53;;;;;;;;;;2567480;23;19997;-89
2023/09/09 04:47:05;;;;;;;5.43;3.92;;;;;;;;;;2583095;23;20384;-88
2023/09/09 04:48:06;;;;;;;6.32;3.92;;;;;;;;;;2587150;22;20066;-88
2023/09/09 04:49:07;;;;;;;7.57;4.20;;;;;;;;;;2579905;23;20453;-90
2023/09/09 04:50:08;;;;;;;6.63;4.32;;;;;;;;;;2579782;23;20421;-90
2023/09/09 04:51:08;;;;;;;6.65;4.28;;;;;;;;;;2582793;23;19999;-89
2023/09/09 04:52:08;;;;;;;7.65;4.00;;;;;;;;;;2579641;23;20000;-89
2023/09/09 04:53:09;;;;;;;6.20;3.85;;;;;;;;;;2583881;22;20019;-90
2023/09/09 04:54:09;;;;;;;7.68;3.83;;;;;;;;;;2579715;23;19996;-89
2023/09/09 04:55:10;;;;;;;10.65;4.13;;;;;;;;;;2586540;23;19996;-89
2023/09/09 04:56:10;;;;;;;6.35;3.92;;;;;;;;;;2577783;23;20047;-90
2023/09/09 04:57:10;;;;;;;7.35;3.83;;;;;;;;;;2578978;22;20036;-90
2023/09/09 04:58:11;;;;;;;6.20;3.20;;;;;;;;;;2579379;23;20011;-89
2023/09/09 04:59:11;;;;;;;7.05;3.72;;;;;;;;;;2579737;23;20024;-89
2023/09/09 05:00:12;;;;;;;6.03;3.08;;;;;;;;;;2567538;23;20023;-89
2023/09/09 05:01:12;;;;;;;7.57;3.22;;;;;;;;;;2584742;22;20412;-88
2023/09/09 05:02:13;;;;;;;6.93;3.05;;;;;;;;;;2574708;23;20335;-91
2023/09/09 05:03:13;;;;;;;5.90;3.50;;;;;;;;;;2582274;23;20042;-88
2023/09/09 05:04:13;;;;;;;7.60;3.42;;;;;;;;;;2590013;23;20004;-88
2023/09/09 05:05:14;;;;;;;6.93;3.45;;;;;;;;;;2568674;23;20250;-88
2023/09/09 05:06:14;;;;;;;6.22;3.70;;;;;;;;;;2580689;23;20004;-88
2023/09/09 05:07:16;;;;;;;4.40;2.92;;;;;;;;;;2583205;23;20433;-89
2023/09/09 05:08:17;;;;;;;5.90;3.47;;;;;;;;;;2593368;22;20454;-90
2023/09/09 05:09:17;;;;;;;6.60;3.45;;;;;;;;;;2595652;22;20000;-90
2023/09/09 05:10:19;;;;;;;8.82;3.40;;;;;;;;;;2596190;22;20008;-90
2023/09/09 05:11:20;;;;;;;4.00;3.00;;;;;;;;;;2583788;22;20069;-89
2023/09/09 05:12:20;;;;;;;7.22;3.55;;;;;;;;;;2587346;23;20004;-90
2023/09/09 05:13:21;;;;;;;6.43;3.45;;;;;;;;;;2582055;23;20091;-89
2023/09/09 05:14:21;;;;;;;5.75;3.38;;;;;;;;;;2568433;23;20119;-89
2023/09/09 05:15:23;;;;;;;6.22;3.53;;;;;;;;;;2569811;23;20343;-89
2023/09/09 05:16:24;;;;;;;8.82;3.40;;;;;;;;;;2576495;23;20095;-89
2023/09/09 05:17:25;;;;;;;6.43;3.50;;;;;;;;;;2585199;23;20319;-89
2023/09/09 05:18:26;;;;;;;8.20;4.05;;;;;;;;;;2591729;22;19999;-89
2023/09/09 05:19:26;;;;;;;5.80;3.45;;;;;;;;;;2597678;22;19999;-90
2023/09/09 05:20:27;;;;;;;7.15;3.70;;;;;;;;;;2600841;22;20004;-89
2023/09/09 05:21:30;;;;;;;7.07;4.03;;;;;;;;;;2600484;22;20004;-89
2023/09/09 05:22:30;;;;;;;6.88;3.55;;;;;;;;;;2583089;23;20434;-94
2023/09/09 05:23:31;;;;;;;6.43;3.45;;;;;;;;;;2569747;23;20005;-93
2023/09/09 05:24:31;;;;;;;7.75;4.63;;;;;;;;;;2566364;23;20035;-92
2023/09/09 05:25:31;;;;;;;5.80;3.70;;;;;;;;;;2566290;23;20438;-94
2023/09/09 05:26:33;;;;;;;5.53;3.88;;;;;;;;;;2582687;23;20004;-92
2023/09/09 05:27:37;;;;;;;7.35;3.70;;;;;;;;;;2582935;23;20098;-93
2023/09/09 05:28:40;;;;;;;7.38;4.05;;;;;;;;;;2584323;22;19996;-94
2023/09/09 05:29:42;;;;;;;8.82;3.97;;;;;;;;;;2581808;23;20014;-95
2023/09/09 05:30:43;;;;;;;6.90;3.92;;;;;;;;;;2570667;23;20462;-94
2023/09/09 05:31:43;;;;;;;5.65;3.70;;;;;;;;;;2570243;23;20008;-94
2023/09/09 05:32:46;;;;;;;8.82;4.25;;;;;;;;;;2570371;23;20013;-94
2023/09/09 05:34:05;;;;;;;7.07;3.70;;;;;;;;;;2568704;23;20015;-89
2023/09/09 05:35:06;;;;;;;9.93;4.00;;;;;;;;;;2571568;23;20342;-89
2023/09/09 05:36:06;;;;;;;5.78;4.20;;;;;;;;;;2587341;22;20075;-90
2023/09/09 05:37:07;;;;;;;8.38;4.13;;;;;;;;;;2584584;22;20024;-90
2023/09/09 05:38:07;;;;;;;12.50;8.05;;;;;;;;;;2584656;22;19992;-90
2023/09/09 05:39:08;;;;;;;10.38;5.40;;;;;;;;;;2580630;23;19992;-89
2023/09/09 05:40:09;;;;;;;17.00;9.75;;;;;;;;;;2583694;23;19996;-90
2023/09/09 05:41:09;;;;;;;7.95;4.13;;;;;;;;;;2580511;23;19996;-89
2023/09/09 05:42:10;;;;;;;6.85;4.30;;;;;;;;;;2568134;23;20003;-90
2023/09/09 05:43:10;;;;;;;6.53;4.07;;;;;;;;;;2583260;23;20008;-89
2023/09/09 05:44:11;;;;;;;8.57;3.72;;;;;;;;;;2584399;23;20091;-90
2023/09/09 05:45:11;;;;;;;9.05;4.03;;;;;;;;;;2593718;22;20031;-90
2023/09/09 05:46:13;;;;;;;7.88;4.25;;;;;;;;;;2583275;23;19997;-94
2023/09/09 05:47:14;;;;;;;5.05;4.10;;;;;;;;;;2570528;23;20004;-95
2023/09/09 05:48:14;;;;;;;9.30;3.58;;;;;;;;;;2570173;23;20001;-95
2023/09/09 05:49:15;;;;;;;7.13;4.43;;;;;;;;;;2585511;23;20007;-95
2023/09/09 05:50:15;;;;;;;8.27;4.13;;;;;;;;;;2595396;22;19999;-95
2023/09/09 05:51:16;;;;;;;9.68;6.07;;;;;;;;;;2582902;23;20028;-95
2023/09/09 05:52:16;;;;;;;9.02;4.70;;;;;;;;;;2596266;22;20007;-93
2023/09/09 05:53:16;;;;;;;6.43;3.78;;;;;;;;;;2591517;23;20004;-93
2023/09/09 05:54:17;;;;;;;8.35;4.88;;;;;;;;;;2570370;23;20000;-95
2023/09/09 05:55:17;;;;;;;6.57;3.30;;;;;;;;;;2570306;23;20043;-93
2023/09/09 05:56:18;;;;;;;6.70;3.78;;;;;;;;;;2582752;23;20061;-94
2023/09/09 05:57:18;;;;;;;7.30;3.60;;;;;;;;;;2582768;23;20024;-93
2023/09/09 05:58:40;;;;;;;3.97;3.40;;;;;;;;;;2597727;22;19995;-94
2023/09/09 05:59:41;;;;;;;7.32;3.25;;;;;;;;;;2595627;22;20518;-93
2023/09/09 06:01:11;;;;;;;6.93;3.50;;;;;;;;;;2582968;23;19996;-94
2023/09/09 06:03:54;;;;;;;;;;;;;;;;;;;;;
2023/09/09 06:04:50;;;;;;;4.90;2.83;;;;;;;;;;2596420;22;20075;-95
2023/09/09 06:05:51;;;;;;;7.03;3.22;;;;;;;;;;2582702;23;20106;-94